AAL3206 KMIA-MDPC
Flight info
| Callsign | AAL3206 |
|---|---|
| Flight time | 1h 42m |
| Altitude | 39000 |
| Route | KLADA2 JAGOR DCT RUMFO Y441 JUELE UW38 PTA DCT PETRI DCT BEREL BEREL1W |
| Aircraft | B77W/H-SDE1E2E3FGHIJ2J3J4J5M1RWXY/LB1D1 |
Departure
| Time | 2026-05-05 17:17 |
|---|---|
| Airport | Miami International Airport (KMIA) |
Arrival
| Time | 2026-05-05 18:59 |
|---|---|
| Airport | Punta Cana International Airport (MDPC) |
| Time | Latitude | Longitude | Altitude | Speed | Heading |
|---|---|---|---|---|---|
| 2026-05-05 16:53 | 25.79775 | -80.28049 | 21 ft | 0 kts | 214° |
| 2026-05-05 17:07 | 25.79776 | -80.28048 | 23 ft | 2 kts | 214° |
| 2026-05-05 17:08 | 25.79796 | -80.28033 | 23 ft | 1 kts | 214° |
| 2026-05-05 17:08 | 25.79816 | -80.28018 | 22 ft | 4 kts | 214° |
| 2026-05-05 17:08 | 25.79838 | -80.28001 | 20 ft | 4 kts | 216° |
| 2026-05-05 17:08 | 25.79859 | -80.27983 | 20 ft | 4 kts | 223° |
| 2026-05-05 17:09 | 25.79876 | -80.27961 | 19 ft | 4 kts | 250° |
| 2026-05-05 17:09 | 25.79880 | -80.27937 | 19 ft | 4 kts | 267° |
| 2026-05-05 17:09 | 25.79881 | -80.27907 | 19 ft | 4 kts | 267° |
| 2026-05-05 17:09 | 25.79882 | -80.27877 | 19 ft | 4 kts | 267° |
| 2026-05-05 17:10 | 25.79883 | -80.27853 | 19 ft | 3 kts | 267° |
| 2026-05-05 17:10 | 25.79885 | -80.27823 | 19 ft | 4 kts | 267° |
| 2026-05-05 17:10 | 25.79885 | -80.27816 | 19 ft | 1 kts | 267° |
| 2026-05-05 17:12 | 25.79888 | -80.27858 | 19 ft | 18 kts | 285° |
| 2026-05-05 17:12 | 25.79964 | -80.27891 | 18 ft | 15 kts | 1° |
| 2026-05-05 17:13 | 25.80047 | -80.27947 | 16 ft | 16 kts | 283° |
| 2026-05-05 17:13 | 25.80044 | -80.28085 | 17 ft | 21 kts | 268° |
| 2026-05-05 17:13 | 25.80039 | -80.28263 | 20 ft | 26 kts | 267° |
| 2026-05-05 17:13 | 25.80029 | -80.28487 | 20 ft | 32 kts | 267° |
| 2026-05-05 17:14 | 25.80021 | -80.28738 | 27 ft | 32 kts | 269° |
| 2026-05-05 17:14 | 25.80007 | -80.28981 | 30 ft | 32 kts | 265° |
| 2026-05-05 17:14 | 25.79995 | -80.29214 | 26 ft | 28 kts | 269° |
| 2026-05-05 17:14 | 25.79990 | -80.29431 | 20 ft | 29 kts | 266° |
| 2026-05-05 17:15 | 25.79981 | -80.29655 | 19 ft | 29 kts | 269° |
| 2026-05-05 17:15 | 25.79971 | -80.29851 | 17 ft | 23 kts | 266° |
| 2026-05-05 17:15 | 25.79961 | -80.30030 | 17 ft | 25 kts | 268° |
| 2026-05-05 17:15 | 25.79953 | -80.30171 | 20 ft | 3 kts | 249° |
| 2026-05-05 17:16 | 25.79909 | -80.30190 | 21 ft | 10 kts | 148° |
| 2026-05-05 17:16 | 25.79883 | -80.30140 | 19 ft | 0 kts | 119° |
| 2026-05-05 17:16 | 25.79831 | -80.30040 | 19 ft | 58 kts | 120° |
| 2026-05-05 17:16 | 25.79450 | -80.29295 | 24 ft | 153 kts | 119° |
| 2026-05-05 17:17 | 25.78849 | -80.28099 | 329 ft | 187 kts | 119° |
| 2026-05-05 17:17 | 25.78245 | -80.26873 | 1415 ft | 176 kts | 113° |
| 2026-05-05 17:17 | 25.77783 | -80.25590 | 2068 ft | 190 kts | 119° |
| 2026-05-05 17:17 | 25.77095 | -80.24223 | 2319 ft | 218 kts | 108° |
| 2026-05-05 17:18 | 25.76975 | -80.22448 | 2673 ft | 243 kts | 90° |
| 2026-05-05 17:18 | 25.76949 | -80.20500 | 3399 ft | 257 kts | 94° |
| 2026-05-05 17:18 | 25.76831 | -80.18493 | 4188 ft | 266 kts | 99° |
| 2026-05-05 17:18 | 25.76259 | -80.16571 | 5050 ft | 270 kts | 118° |
| 2026-05-05 17:19 | 25.75324 | -80.14738 | 5986 ft | 275 kts | 122° |
| 2026-05-05 17:19 | 25.74345 | -80.12882 | 6887 ft | 283 kts | 122° |
| 2026-05-05 17:19 | 25.73354 | -80.10970 | 7801 ft | 287 kts | 121° |
| 2026-05-05 17:19 | 25.72507 | -80.08934 | 8633 ft | 295 kts | 113° |
| 2026-05-05 17:20 | 25.71799 | -80.06772 | 9501 ft | 301 kts | 111° |
| 2026-05-05 17:20 | 25.71108 | -80.04558 | 10334 ft | 309 kts | 111° |
| 2026-05-05 17:20 | 25.70378 | -80.02238 | 10752 ft | 333 kts | 111° |
| 2026-05-05 17:20 | 25.69565 | -79.99701 | 10973 ft | 364 kts | 111° |
| 2026-05-05 17:21 | 25.68676 | -79.96961 | 11250 ft | 391 kts | 111° |
| 2026-05-05 17:21 | 25.67731 | -79.94075 | 11964 ft | 404 kts | 111° |
| 2026-05-05 17:21 | 25.66757 | -79.91122 | 12870 ft | 413 kts | 111° |
| 2026-05-05 17:22 | 25.64737 | -79.85033 | 14697 ft | 428 kts | 111° |
| 2026-05-05 17:22 | 25.63697 | -79.81909 | 15551 ft | 436 kts | 111° |
| 2026-05-05 17:22 | 25.62636 | -79.78723 | 16407 ft | 444 kts | 111° |
| 2026-05-05 17:22 | 25.61559 | -79.75490 | 17256 ft | 451 kts | 110° |
| 2026-05-05 17:23 | 25.60462 | -79.72200 | 18076 ft | 458 kts | 110° |
| 2026-05-05 17:23 | 25.59323 | -79.68868 | 18848 ft | 466 kts | 112° |
| 2026-05-05 17:23 | 25.57992 | -79.65573 | 19589 ft | 472 kts | 116° |
| 2026-05-05 17:23 | 25.56525 | -79.62294 | 20334 ft | 479 kts | 117° |
| 2026-05-05 17:24 | 25.54996 | -79.58993 | 21047 ft | 485 kts | 118° |
| 2026-05-05 17:24 | 25.53442 | -79.55645 | 21738 ft | 491 kts | 118° |
| 2026-05-05 17:24 | 25.51887 | -79.52256 | 22368 ft | 498 kts | 117° |
| 2026-05-05 17:24 | 25.50326 | -79.48808 | 22998 ft | 503 kts | 117° |
| 2026-05-05 17:25 | 25.48763 | -79.45318 | 23621 ft | 508 kts | 117° |
| 2026-05-05 17:25 | 25.47726 | -79.42994 | 24002 ft | 512 kts | 116° |
| 2026-05-05 17:25 | 25.45628 | -79.38274 | 24757 ft | 519 kts | 116° |
| 2026-05-05 17:25 | 25.44032 | -79.34683 | 25343 ft | 522 kts | 117° |
| 2026-05-05 17:26 | 25.42424 | -79.31070 | 25919 ft | 526 kts | 117° |
| 2026-05-05 17:26 | 25.40797 | -79.27422 | 26448 ft | 530 kts | 117° |
| 2026-05-05 17:26 | 25.39158 | -79.23752 | 26989 ft | 534 kts | 117° |
| 2026-05-05 17:26 | 25.37512 | -79.20069 | 27522 ft | 537 kts | 117° |
| 2026-05-05 17:27 | 25.35850 | -79.16356 | 28022 ft | 541 kts | 117° |
| 2026-05-05 17:27 | 25.34174 | -79.12615 | 28499 ft | 544 kts | 117° |
| 2026-05-05 17:27 | 25.32489 | -79.08855 | 28981 ft | 547 kts | 117° |
| 2026-05-05 17:27 | 25.30795 | -79.05080 | 29419 ft | 550 kts | 117° |
| 2026-05-05 17:28 | 25.29090 | -79.01284 | 29823 ft | 553 kts | 117° |
| 2026-05-05 17:28 | 25.27376 | -78.97472 | 30234 ft | 555 kts | 117° |
| 2026-05-05 17:28 | 25.25659 | -78.93652 | 30702 ft | 556 kts | 117° |
| 2026-05-05 17:28 | 25.23934 | -78.89822 | 31205 ft | 555 kts | 116° |
| 2026-05-05 17:29 | 25.22217 | -78.86011 | 31709 ft | 555 kts | 116° |
| 2026-05-05 17:29 | 25.20496 | -78.82195 | 32181 ft | 555 kts | 116° |
| 2026-05-05 17:29 | 25.18774 | -78.78379 | 32617 ft | 556 kts | 116° |
| 2026-05-05 17:29 | 25.17053 | -78.74570 | 33070 ft | 555 kts | 116° |
| 2026-05-05 17:30 | 25.15328 | -78.70754 | 33510 ft | 555 kts | 116° |
| 2026-05-05 17:30 | 25.13603 | -78.66941 | 33935 ft | 555 kts | 116° |
| 2026-05-05 17:30 | 25.11882 | -78.63138 | 34359 ft | 555 kts | 116° |
| 2026-05-05 17:30 | 25.10157 | -78.59331 | 34754 ft | 555 kts | 116° |
| 2026-05-05 17:31 | 25.08377 | -78.55539 | 35113 ft | 556 kts | 117° |
| 2026-05-05 17:31 | 25.06540 | -78.51793 | 35494 ft | 556 kts | 118° |
| 2026-05-05 17:31 | 25.04674 | -78.48064 | 35938 ft | 555 kts | 118° |
| 2026-05-05 17:31 | 25.02802 | -78.44339 | 36288 ft | 556 kts | 118° |
| 2026-05-05 17:32 | 25.00934 | -78.40606 | 36609 ft | 556 kts | 117° |
| 2026-05-05 17:32 | 24.99075 | -78.36869 | 36976 ft | 556 kts | 117° |
| 2026-05-05 17:32 | 24.97226 | -78.33133 | 37431 ft | 553 kts | 117° |
| 2026-05-05 17:32 | 24.95393 | -78.29422 | 37867 ft | 550 kts | 116° |
| 2026-05-05 17:33 | 24.93592 | -78.25772 | 38236 ft | 549 kts | 116° |
| 2026-05-05 17:33 | 24.91748 | -78.22037 | 38553 ft | 549 kts | 116° |
| 2026-05-05 17:33 | 24.89942 | -78.18384 | 38807 ft | 550 kts | 116° |
| 2026-05-05 17:33 | 24.88108 | -78.14681 | 38971 ft | 553 kts | 116° |
| 2026-05-05 17:34 | 24.86236 | -78.10906 | 39018 ft | 557 kts | 116° |
| 2026-05-05 17:34 | 24.82546 | -78.03481 | 39027 ft | 554 kts | 116° |
| 2026-05-05 17:35 | 24.78872 | -77.96099 | 39040 ft | 547 kts | 117° |
| 2026-05-05 17:35 | 24.75228 | -77.88781 | 39038 ft | 544 kts | 117° |
| 2026-05-05 17:36 | 24.71589 | -77.81487 | 39035 ft | 543 kts | 117° |
| 2026-05-05 17:36 | 24.67957 | -77.74217 | 39038 ft | 543 kts | 117° |
| 2026-05-05 17:37 | 24.64059 | -77.67095 | 39040 ft | 544 kts | 122° |
| 2026-05-05 17:37 | 24.59888 | -77.60153 | 39039 ft | 545 kts | 123° |
| 2026-05-05 17:38 | 24.55702 | -77.53194 | 39043 ft | 546 kts | 122° |
| 2026-05-05 17:38 | 24.51556 | -77.46193 | 39040 ft | 547 kts | 122° |
| 2026-05-05 17:39 | 24.47429 | -77.39169 | 39036 ft | 548 kts | 122° |
| 2026-05-05 17:39 | 24.43297 | -77.32146 | 39036 ft | 548 kts | 122° |
| 2026-05-05 17:40 | 24.39160 | -77.25131 | 39039 ft | 547 kts | 122° |
| 2026-05-05 17:40 | 24.35020 | -77.18130 | 39035 ft | 547 kts | 122° |
| 2026-05-05 17:41 | 24.30880 | -77.11143 | 39035 ft | 546 kts | 122° |
| 2026-05-05 17:41 | 24.27443 | -77.05347 | 39040 ft | 545 kts | 123° |
| 2026-05-05 17:42 | 24.23315 | -76.98394 | 39047 ft | 544 kts | 123° |
| 2026-05-05 17:42 | 24.19196 | -76.91461 | 39043 ft | 543 kts | 123° |
| 2026-05-05 17:43 | 24.15076 | -76.84540 | 39047 ft | 541 kts | 123° |
| 2026-05-05 17:43 | 24.10969 | -76.77653 | 39046 ft | 540 kts | 123° |
| 2026-05-05 17:44 | 24.06866 | -76.70781 | 39047 ft | 539 kts | 123° |
| 2026-05-05 17:44 | 24.02766 | -76.63920 | 39043 ft | 537 kts | 123° |
| 2026-05-05 17:45 | 23.98679 | -76.57092 | 39046 ft | 536 kts | 123° |
| 2026-05-05 17:45 | 23.94593 | -76.50275 | 39051 ft | 535 kts | 124° |
| 2026-05-05 17:46 | 23.90521 | -76.43492 | 39042 ft | 533 kts | 124° |
| 2026-05-05 17:46 | 23.86451 | -76.36721 | 39047 ft | 533 kts | 124° |
| 2026-05-05 17:47 | 23.82406 | -76.30003 | 39047 ft | 533 kts | 124° |
| 2026-05-05 17:47 | 23.78335 | -76.23252 | 39049 ft | 532 kts | 124° |
| 2026-05-05 17:48 | 23.74268 | -76.16511 | 39056 ft | 532 kts | 124° |
| 2026-05-05 17:48 | 23.70196 | -76.09769 | 39055 ft | 532 kts | 124° |
| 2026-05-05 17:49 | 23.66121 | -76.03033 | 39057 ft | 532 kts | 124° |
| 2026-05-05 17:49 | 23.62040 | -75.96302 | 39055 ft | 532 kts | 124° |
| 2026-05-05 17:50 | 23.57956 | -75.89571 | 39056 ft | 532 kts | 124° |
| 2026-05-05 17:50 | 23.53866 | -75.82841 | 39057 ft | 533 kts | 124° |
| 2026-05-05 17:51 | 23.49770 | -75.76103 | 39055 ft | 533 kts | 124° |
| 2026-05-05 17:51 | 23.45663 | -75.69368 | 39057 ft | 534 kts | 124° |
| 2026-05-05 17:52 | 23.41550 | -75.62623 | 39054 ft | 534 kts | 124° |
| 2026-05-05 17:52 | 23.37435 | -75.55882 | 39056 ft | 534 kts | 125° |
| 2026-05-05 17:53 | 23.33329 | -75.49168 | 39056 ft | 533 kts | 124° |
| 2026-05-05 17:53 | 23.29247 | -75.42503 | 39054 ft | 532 kts | 125° |
| 2026-05-05 17:54 | 23.25140 | -75.35805 | 39057 ft | 532 kts | 125° |
| 2026-05-05 17:54 | 23.21033 | -75.29117 | 39055 ft | 532 kts | 125° |
| 2026-05-05 17:55 | 23.16924 | -75.22433 | 39063 ft | 532 kts | 125° |
| 2026-05-05 17:55 | 23.12814 | -75.15753 | 39063 ft | 532 kts | 125° |
| 2026-05-05 17:56 | 23.08702 | -75.09083 | 39056 ft | 531 kts | 125° |
| 2026-05-05 17:56 | 23.04490 | -75.02485 | 39054 ft | 531 kts | 127° |
| 2026-05-05 17:57 | 23.00205 | -74.95945 | 39057 ft | 531 kts | 127° |
| 2026-05-05 17:57 | 22.95928 | -74.89408 | 39057 ft | 531 kts | 127° |
| 2026-05-05 17:58 | 22.91659 | -74.82854 | 39054 ft | 531 kts | 127° |
| 2026-05-05 17:58 | 22.87400 | -74.76307 | 39055 ft | 531 kts | 127° |
| 2026-05-05 17:59 | 22.83140 | -74.69770 | 39055 ft | 531 kts | 127° |
| 2026-05-05 17:59 | 22.78874 | -74.63233 | 39056 ft | 531 kts | 127° |
| 2026-05-05 18:00 | 22.74607 | -74.56705 | 39054 ft | 531 kts | 127° |
| 2026-05-05 18:00 | 22.70333 | -74.50175 | 39048 ft | 531 kts | 127° |
| 2026-05-05 18:01 | 22.66058 | -74.43647 | 39046 ft | 531 kts | 127° |
| 2026-05-05 18:01 | 22.61787 | -74.37136 | 39045 ft | 531 kts | 127° |
| 2026-05-05 18:02 | 22.57516 | -74.30634 | 39049 ft | 528 kts | 127° |
| 2026-05-05 18:02 | 22.53265 | -74.24170 | 39032 ft | 526 kts | 127° |
| 2026-05-05 18:03 | 22.49064 | -74.17789 | 39039 ft | 522 kts | 127° |
| 2026-05-05 18:03 | 22.44858 | -74.11406 | 39038 ft | 520 kts | 127° |
| 2026-05-05 18:04 | 22.40663 | -74.05050 | 39042 ft | 519 kts | 127° |
| 2026-05-05 18:04 | 22.36474 | -73.98713 | 39042 ft | 519 kts | 127° |
| 2026-05-05 18:05 | 22.32281 | -73.92372 | 39035 ft | 518 kts | 127° |
| 2026-05-05 18:05 | 22.28083 | -73.86034 | 39034 ft | 520 kts | 127° |
| 2026-05-05 18:06 | 22.23867 | -73.79679 | 39038 ft | 521 kts | 127° |
| 2026-05-05 18:06 | 22.19647 | -73.73322 | 39037 ft | 521 kts | 127° |
| 2026-05-05 18:07 | 22.15416 | -73.66955 | 39033 ft | 522 kts | 127° |
| 2026-05-05 18:07 | 22.11179 | -73.60590 | 39027 ft | 523 kts | 128° |
| 2026-05-05 18:08 | 22.06945 | -73.54236 | 39021 ft | 523 kts | 128° |
| 2026-05-05 18:08 | 22.02704 | -73.47875 | 39007 ft | 522 kts | 128° |
| 2026-05-05 18:09 | 21.98462 | -73.41524 | 39035 ft | 522 kts | 128° |
| 2026-05-05 18:09 | 21.94225 | -73.35186 | 39012 ft | 521 kts | 128° |
| 2026-05-05 18:10 | 21.89992 | -73.28861 | 39016 ft | 520 kts | 128° |
| 2026-05-05 18:10 | 21.85762 | -73.22549 | 39025 ft | 519 kts | 128° |
| 2026-05-05 18:11 | 21.81565 | -73.16293 | 39008 ft | 518 kts | 128° |
| 2026-05-05 18:11 | 21.77345 | -73.10011 | 39007 ft | 518 kts | 128° |
| 2026-05-05 18:12 | 21.73123 | -73.03735 | 39005 ft | 518 kts | 128° |
| 2026-05-05 18:12 | 21.68904 | -72.97470 | 39013 ft | 517 kts | 128° |
| 2026-05-05 18:13 | 21.64683 | -72.91207 | 39019 ft | 517 kts | 128° |
| 2026-05-05 18:13 | 21.60462 | -72.84950 | 39027 ft | 517 kts | 128° |
| 2026-05-05 18:14 | 21.56237 | -72.78698 | 39016 ft | 517 kts | 128° |
| 2026-05-05 18:14 | 21.52008 | -72.72445 | 39005 ft | 517 kts | 128° |
| 2026-05-05 18:15 | 21.47780 | -72.66202 | 39008 ft | 517 kts | 128° |
| 2026-05-05 18:15 | 21.43559 | -72.59972 | 39002 ft | 516 kts | 128° |
| 2026-05-05 18:16 | 21.39333 | -72.53747 | 39003 ft | 516 kts | 128° |
| 2026-05-05 18:16 | 21.35107 | -72.47525 | 39009 ft | 516 kts | 128° |
| 2026-05-05 18:17 | 21.30897 | -72.41337 | 39006 ft | 516 kts | 128° |
| 2026-05-05 18:17 | 21.26665 | -72.35121 | 39008 ft | 516 kts | 128° |
| 2026-05-05 18:18 | 21.22431 | -72.28910 | 39005 ft | 516 kts | 128° |
| 2026-05-05 18:18 | 21.18197 | -72.22706 | 39008 ft | 516 kts | 128° |
| 2026-05-05 18:19 | 21.13957 | -72.16497 | 39007 ft | 516 kts | 128° |
| 2026-05-05 18:19 | 21.09710 | -72.10290 | 39007 ft | 516 kts | 128° |
| 2026-05-05 18:20 | 21.05469 | -72.04098 | 39007 ft | 516 kts | 128° |
| 2026-05-05 18:20 | 21.01228 | -71.97908 | 38998 ft | 515 kts | 128° |
| 2026-05-05 18:21 | 20.97015 | -71.91768 | 38994 ft | 514 kts | 129° |
| 2026-05-05 18:21 | 20.92789 | -71.85613 | 38999 ft | 512 kts | 129° |
| 2026-05-05 18:22 | 20.88564 | -71.79470 | 38994 ft | 511 kts | 129° |
| 2026-05-05 18:22 | 20.84353 | -71.73357 | 38993 ft | 510 kts | 129° |
| 2026-05-05 18:23 | 20.80144 | -71.67249 | 39000 ft | 510 kts | 129° |
| 2026-05-05 18:23 | 20.75938 | -71.61153 | 39009 ft | 509 kts | 129° |
| 2026-05-05 18:24 | 20.71735 | -71.55066 | 38992 ft | 509 kts | 129° |
| 2026-05-05 18:24 | 20.67526 | -71.48976 | 38997 ft | 509 kts | 129° |
| 2026-05-05 18:25 | 20.63310 | -71.42886 | 38985 ft | 510 kts | 129° |
| 2026-05-05 18:25 | 20.59120 | -71.36841 | 38990 ft | 510 kts | 129° |
| 2026-05-05 18:26 | 20.54901 | -71.30757 | 38989 ft | 510 kts | 129° |
| 2026-05-05 18:26 | 20.50676 | -71.24668 | 38983 ft | 511 kts | 129° |
| 2026-05-05 18:27 | 20.46450 | -71.18585 | 38976 ft | 511 kts | 129° |
| 2026-05-05 18:27 | 20.42053 | -71.12659 | 38968 ft | 507 kts | 136° |
| 2026-05-05 18:28 | 20.34116 | -71.05354 | 38960 ft | 501 kts | 146° |
| 2026-05-05 18:28 | 20.28594 | -71.00826 | 38952 ft | 501 kts | 146° |
| 2026-05-05 18:29 | 20.23086 | -70.96263 | 38940 ft | 501 kts | 146° |
| 2026-05-05 18:29 | 20.17595 | -70.91681 | 38935 ft | 501 kts | 146° |
| 2026-05-05 18:30 | 20.13037 | -70.87876 | 38931 ft | 501 kts | 146° |
| 2026-05-05 18:30 | 20.07556 | -70.83305 | 38928 ft | 500 kts | 146° |
| 2026-05-05 18:31 | 20.02081 | -70.78745 | 38914 ft | 500 kts | 146° |
| 2026-05-05 18:31 | 19.96607 | -70.74190 | 38916 ft | 499 kts | 146° |
| 2026-05-05 18:32 | 19.91141 | -70.69647 | 38903 ft | 499 kts | 147° |
| 2026-05-05 18:32 | 19.85676 | -70.65111 | 38907 ft | 498 kts | 147° |
| 2026-05-05 18:33 | 19.80213 | -70.60571 | 38905 ft | 499 kts | 146° |
| 2026-05-05 18:33 | 19.75281 | -70.55333 | 38908 ft | 506 kts | 133° |
| 2026-05-05 18:34 | 19.71288 | -70.49134 | 38914 ft | 511 kts | 124° |
| 2026-05-05 18:34 | 19.67677 | -70.42629 | 38902 ft | 511 kts | 124° |
| 2026-05-05 18:35 | 19.64064 | -70.36137 | 38916 ft | 510 kts | 124° |
| 2026-05-05 18:35 | 19.60416 | -70.29683 | 38932 ft | 510 kts | 125° |
| 2026-05-05 18:36 | 19.56746 | -70.23231 | 38935 ft | 511 kts | 125° |
| 2026-05-05 18:36 | 19.53096 | -70.16822 | 38938 ft | 511 kts | 125° |
| 2026-05-05 18:37 | 19.49418 | -70.10367 | 38949 ft | 511 kts | 125° |
| 2026-05-05 18:37 | 19.45742 | -70.03920 | 38961 ft | 511 kts | 125° |
| 2026-05-05 18:38 | 19.42055 | -69.97462 | 38964 ft | 512 kts | 125° |
| 2026-05-05 18:38 | 19.38370 | -69.91011 | 38972 ft | 512 kts | 125° |
| 2026-05-05 18:39 | 19.34682 | -69.84560 | 38972 ft | 512 kts | 125° |
| 2026-05-05 18:39 | 19.31015 | -69.78156 | 38980 ft | 511 kts | 125° |
| 2026-05-05 18:40 | 19.27359 | -69.71772 | 38731 ft | 500 kts | 125° |
| 2026-05-05 18:40 | 19.25582 | -69.68628 | 38183 ft | 497 kts | 123° |
| 2026-05-05 18:40 | 19.23872 | -69.65435 | 37379 ft | 501 kts | 122° |
| 2026-05-05 18:41 | 19.22186 | -69.62185 | 36507 ft | 505 kts | 122° |
| 2026-05-05 18:41 | 19.20509 | -69.58917 | 35686 ft | 506 kts | 121° |
| 2026-05-05 18:41 | 19.18823 | -69.55641 | 34757 ft | 509 kts | 121° |
| 2026-05-05 18:41 | 19.17117 | -69.52351 | 33747 ft | 513 kts | 121° |
| 2026-05-05 18:42 | 19.15387 | -69.49037 | 32692 ft | 517 kts | 121° |
| 2026-05-05 18:42 | 19.13659 | -69.45743 | 31600 ft | 521 kts | 121° |
| 2026-05-05 18:42 | 19.11896 | -69.42390 | 30464 ft | 524 kts | 121° |
| 2026-05-05 18:42 | 19.10125 | -69.39025 | 29584 ft | 522 kts | 121° |
| 2026-05-05 18:43 | 19.08372 | -69.35695 | 28982 ft | 514 kts | 121° |
| 2026-05-05 18:43 | 19.06650 | -69.32424 | 28383 ft | 506 kts | 121° |
| 2026-05-05 18:43 | 19.04953 | -69.29202 | 27763 ft | 499 kts | 121° |
| 2026-05-05 18:43 | 19.03274 | -69.26016 | 27094 ft | 494 kts | 120° |
| 2026-05-05 18:44 | 19.01614 | -69.22866 | 26410 ft | 481 kts | 120° |
| 2026-05-05 18:44 | 19.00025 | -69.19848 | 25168 ft | 463 kts | 120° |
| 2026-05-05 18:44 | 18.98472 | -69.16907 | 23600 ft | 454 kts | 120° |
| 2026-05-05 18:44 | 18.96946 | -69.14022 | 22032 ft | 445 kts | 120° |
| 2026-05-05 18:45 | 18.95450 | -69.11193 | 20415 ft | 438 kts | 120° |
| 2026-05-05 18:45 | 18.93975 | -69.08404 | 18854 ft | 430 kts | 120° |
| 2026-05-05 18:45 | 18.92533 | -69.05676 | 17478 ft | 420 kts | 120° |
| 2026-05-05 18:45 | 18.91152 | -69.03064 | 16798 ft | 393 kts | 120° |
| 2026-05-05 18:46 | 18.89876 | -69.00647 | 16545 ft | 360 kts | 120° |
| 2026-05-05 18:46 | 18.88706 | -68.98436 | 16373 ft | 331 kts | 120° |
| 2026-05-05 18:46 | 18.87621 | -68.96388 | 16137 ft | 308 kts | 120° |
| 2026-05-05 18:46 | 18.86602 | -68.94467 | 15734 ft | 294 kts | 121° |
| 2026-05-05 18:47 | 18.85620 | -68.92618 | 15218 ft | 285 kts | 121° |
| 2026-05-05 18:47 | 18.84658 | -68.90803 | 14593 ft | 281 kts | 121° |
| 2026-05-05 18:47 | 18.83704 | -68.89008 | 13948 ft | 279 kts | 120° |
| 2026-05-05 18:47 | 18.82760 | -68.87240 | 13318 ft | 274 kts | 122° |
| 2026-05-05 18:48 | 18.81679 | -68.85610 | 12711 ft | 269 kts | 129° |
| 2026-05-05 18:48 | 18.80528 | -68.84106 | 12123 ft | 265 kts | 130° |
| 2026-05-05 18:48 | 18.79363 | -68.82612 | 11510 ft | 262 kts | 130° |
| 2026-05-05 18:48 | 18.78217 | -68.81131 | 10891 ft | 259 kts | 129° |
| 2026-05-05 18:49 | 18.77092 | -68.79663 | 10296 ft | 255 kts | 129° |
| 2026-05-05 18:49 | 18.75996 | -68.78220 | 9844 ft | 247 kts | 129° |
| 2026-05-05 18:49 | 18.74936 | -68.76820 | 9506 ft | 245 kts | 128° |
| 2026-05-05 18:49 | 18.73848 | -68.75377 | 9199 ft | 256 kts | 128° |
| 2026-05-05 18:50 | 18.72732 | -68.73895 | 8849 ft | 260 kts | 128° |
| 2026-05-05 18:50 | 18.71603 | -68.72393 | 8469 ft | 262 kts | 128° |
| 2026-05-05 18:50 | 18.70502 | -68.70931 | 8099 ft | 248 kts | 128° |
| 2026-05-05 18:50 | 18.69432 | -68.69506 | 7764 ft | 245 kts | 128° |
| 2026-05-05 18:51 | 18.68403 | -68.68140 | 7440 ft | 233 kts | 128° |
| 2026-05-05 18:51 | 18.67401 | -68.66808 | 7139 ft | 234 kts | 128° |
| 2026-05-05 18:51 | 18.66381 | -68.65444 | 6818 ft | 235 kts | 128° |
| 2026-05-05 18:51 | 18.65380 | -68.64109 | 6498 ft | 231 kts | 128° |
| 2026-05-05 18:52 | 18.64399 | -68.62801 | 6192 ft | 224 kts | 128° |
| 2026-05-05 18:52 | 18.63430 | -68.61518 | 5906 ft | 226 kts | 128° |
| 2026-05-05 18:52 | 18.62468 | -68.60235 | 5553 ft | 221 kts | 127° |
| 2026-05-05 18:52 | 18.61510 | -68.58958 | 4999 ft | 224 kts | 128° |
| 2026-05-05 18:53 | 18.60543 | -68.57670 | 4363 ft | 223 kts | 128° |
| 2026-05-05 18:53 | 18.59542 | -68.56425 | 3753 ft | 225 kts | 139° |
| 2026-05-05 18:53 | 18.58148 | -68.55645 | 3343 ft | 227 kts | 158° |
| 2026-05-05 18:53 | 18.56658 | -68.55114 | 3161 ft | 224 kts | 165° |
| 2026-05-05 18:54 | 18.55124 | -68.54994 | 3022 ft | 218 kts | 178° |
| 2026-05-05 18:54 | 18.53616 | -68.55010 | 3035 ft | 217 kts | 177° |
| 2026-05-05 18:54 | 18.52115 | -68.54944 | 3019 ft | 212 kts | 165° |
| 2026-05-05 18:54 | 18.50891 | -68.54157 | 2915 ft | 210 kts | 123° |
| 2026-05-05 18:55 | 18.50540 | -68.52715 | 2507 ft | 206 kts | 81° |
| 2026-05-05 18:55 | 18.51240 | -68.51457 | 2053 ft | 200 kts | 47° |
| 2026-05-05 18:55 | 18.52166 | -68.50405 | 1826 ft | 194 kts | 54° |
| 2026-05-05 18:55 | 18.52920 | -68.49308 | 1739 ft | 177 kts | 58° |
| 2026-05-05 18:56 | 18.53632 | -68.48276 | 1635 ft | 170 kts | 57° |
| 2026-05-05 18:56 | 18.54315 | -68.47304 | 1363 ft | 159 kts | 57° |
| 2026-05-05 18:56 | 18.54893 | -68.46381 | 1111 ft | 145 kts | 74° |
| 2026-05-05 18:56 | 18.55118 | -68.45341 | 1073 ft | 148 kts | 79° |
| 2026-05-05 18:57 | 18.55394 | -68.44302 | 1011 ft | 150 kts | 77° |
| 2026-05-05 18:57 | 18.55687 | -68.43236 | 769 ft | 152 kts | 77° |
| 2026-05-05 18:57 | 18.55971 | -68.42191 | 570 ft | 141 kts | 76° |
| 2026-05-05 18:57 | 18.56264 | -68.41171 | 492 ft | 149 kts | 77° |
| 2026-05-05 18:58 | 18.56536 | -68.40118 | 382 ft | 148 kts | 78° |
| 2026-05-05 18:58 | 18.56806 | -68.39079 | 316 ft | 147 kts | 76° |
| 2026-05-05 18:58 | 18.57116 | -68.38063 | 126 ft | 142 kts | 77° |
| 2026-05-05 18:58 | 18.57362 | -68.37113 | 55 ft | 124 kts | 75° |
| 2026-05-05 18:59 | 18.57572 | -68.36356 | 51 ft | 87 kts | 73° |
| 2026-05-05 18:59 | 18.57704 | -68.35877 | 58 ft | 64 kts | 75° |
| 2026-05-05 18:59 | 18.57786 | -68.35584 | 50 ft | 29 kts | 79° |
| 2026-05-05 18:59 | 18.57676 | -68.35467 | 54 ft | 15 kts | 187° |
| 2026-05-05 19:00 | 18.57619 | -68.35538 | 53 ft | 14 kts | 251° |
| 2026-05-05 19:00 | 18.57591 | -68.35634 | 55 ft | 14 kts | 253° |
| 2026-05-05 19:00 | 18.57562 | -68.35740 | 53 ft | 17 kts | 256° |
| 2026-05-05 19:00 | 18.57516 | -68.35848 | 54 ft | 14 kts | 210° |
| 2026-05-05 19:01 | 18.57394 | -68.35834 | 52 ft | 22 kts | 175° |
| 2026-05-05 19:01 | 18.57221 | -68.35824 | 56 ft | 28 kts | 177° |
| 2026-05-05 19:01 | 18.57045 | -68.35816 | 52 ft | 21 kts | 177° |
| 2026-05-05 19:01 | 18.56976 | -68.35840 | 51 ft | 10 kts | 255° |
| 2026-05-05 19:02 | 18.56959 | -68.35969 | 54 ft | 25 kts | 264° |
| 2026-05-05 19:02 | 18.56940 | -68.36197 | 56 ft | 35 kts | 266° |
| 2026-05-05 19:02 | 18.56920 | -68.36410 | 52 ft | 17 kts | 249° |
| 2026-05-05 19:02 | 18.56827 | -68.36440 | 49 ft | 15 kts | 176° |
| 2026-05-05 19:03 | 18.56723 | -68.36428 | 55 ft | 16 kts | 173° |
| 2026-05-05 19:03 | 18.56601 | -68.36418 | 49 ft | 19 kts | 187° |
| 2026-05-05 19:03 | 18.56550 | -68.36486 | 54 ft | 14 kts | 261° |
| 2026-05-05 19:03 | 18.56541 | -68.36598 | 56 ft | 19 kts | 264° |
| 2026-05-05 19:04 | 18.56521 | -68.36830 | 52 ft | 35 kts | 265° |
| 2026-05-05 19:04 | 18.56508 | -68.36978 | 50 ft | 9 kts | 261° |
| 2026-05-05 19:04 | 18.56486 | -68.37006 | 55 ft | 0 kts | 211° |
| 2026-05-05 19:04 | 18.56477 | -68.37010 | 54 ft | 2 kts | 206° |
| 2026-05-05 19:05 | 18.56445 | -68.37009 | 51 ft | 6 kts | 149° |
| 2026-05-05 19:05 | 18.56430 | -68.36968 | 53 ft | 6 kts | 88° |
| 2026-05-05 19:05 | 18.56433 | -68.36927 | 55 ft | 3 kts | 85° |
| 2026-05-05 19:05 | 18.56434 | -68.36918 | 50 ft | 0 kts | 85° |